sensor_id;sensor_type;location;lat;lon;timestamp;P1;durP1;ratioP1;P2;durP2;ratioP2
64966;SDS011;51710;38.732;-121.358;2022-09-27T00:00:03;2.53;;;1.00;;
64966;SDS011;51710;38.732;-121.358;2022-09-27T00:02:30;2.78;;;1.10;;
64966;SDS011;51710;38.732;-121.358;2022-09-27T00:04:56;1.08;;;0.80;;
64966;SDS011;51710;38.732;-121.358;2022-09-27T00:07:23;1.35;;;0.80;;
64966;SDS011;51710;38.732;-121.358;2022-09-27T00:09:49;2.25;;;0.80;;
64966;SDS011;51710;38.732;-121.358;2022-09-27T00:12:15;2.20;;;0.80;;
64966;SDS011;51710;38.732;-121.358;2022-09-27T00:14:42;2.60;;;1.33;;
64966;SDS011;51710;38.732;-121.358;2022-09-27T00:17:08;4.00;;;1.02;;
64966;SDS011;51710;38.732;-121.358;2022-09-27T00:19:35;3.45;;;1.00;;
64966;SDS011;51710;38.732;-121.358;2022-09-27T00:22:01;4.95;;;1.25;;
64966;SDS011;51710;38.732;-121.358;2022-09-27T00:24:28;3.75;;;1.08;;
64966;SDS011;51710;38.732;-121.358;2022-09-27T00:26:54;1.42;;;0.80;;
64966;SDS011;51710;38.732;-121.358;2022-09-27T00:29:20;1.30;;;1.02;;
64966;SDS011;51710;38.732;-121.358;2022-09-27T00:31:47;3.25;;;0.90;;
64966;SDS011;51710;38.732;-121.358;2022-09-27T00:34:18;0.85;;;0.70;;
64966;SDS011;51710;38.732;-121.358;2022-09-27T00:36:46;1.08;;;0.88;;
64966;SDS011;51710;38.732;-121.358;2022-09-27T00:39:13;1.95;;;0.98;;
64966;SDS011;51710;38.732;-121.358;2022-09-27T00:41:40;3.63;;;1.08;;
64966;SDS011;51710;38.732;-121.358;2022-09-27T00:49:58;4.32;;;1.00;;
64966;SDS011;51710;38.732;-121.358;2022-09-27T00:52:33;1.63;;;0.80;;
64966;SDS011;51710;38.732;-121.358;2022-09-27T00:55:09;3.13;;;1.20;;
64966;SDS011;51710;38.732;-121.358;2022-09-27T00:57:41;3.45;;;0.80;;
64966;SDS011;51710;38.732;-121.358;2022-09-27T01:00:11;1.58;;;1.10;;
64966;SDS011;51710;38.732;-121.358;2022-09-27T01:02:40;3.47;;;1.70;;
64966;SDS011;51710;38.732;-121.358;2022-09-27T01:05:11;1.73;;;0.90;;
64966;SDS011;51710;38.732;-121.358;2022-09-27T01:07:39;1.35;;;1.00;;
64966;SDS011;51710;38.732;-121.358;2022-09-27T01:10:06;2.08;;;0.88;;
64966;SDS011;51710;38.732;-121.358;2022-09-27T01:12:55;4.15;;;0.90;;
64966;SDS011;51710;38.732;-121.358;2022-09-27T01:15:56;1.70;;;1.33;;
64966;SDS011;51710;38.732;-121.358;2022-09-27T01:18:37;1.38;;;0.80;;
64966;SDS011;51710;38.732;-121.358;2022-09-27T01:37:26;3.83;;;0.90;;
64966;SDS011;51710;38.732;-121.358;2022-09-27T01:45:23;2.38;;;0.90;;
64966;SDS011;51710;38.732;-121.358;2022-09-27T01:47:56;1.48;;;1.00;;
64966;SDS011;51710;38.732;-121.358;2022-09-27T01:53:09;2.03;;;0.95;;
64966;SDS011;51710;38.732;-121.358;2022-09-27T01:55:42;6.60;;;1.75;;
64966;SDS011;51710;38.732;-121.358;2022-09-27T02:00:41;3.33;;;1.00;;
64966;SDS011;51710;38.732;-121.358;2022-09-27T02:03:17;2.13;;;1.40;;
64966;SDS011;51710;38.732;-121.358;2022-09-27T02:05:52;2.95;;;1.02;;
64966;SDS011;51710;38.732;-121.358;2022-09-27T02:10:54;2.88;;;1.02;;
64966;SDS011;51710;38.732;-121.358;2022-09-27T02:13:26;2.03;;;1.33;;
64966;SDS011;51710;38.732;-121.358;2022-09-27T02:21:39;3.72;;;1.00;;
64966;SDS011;51710;38.732;-121.358;2022-09-27T02:24:11;2.08;;;1.10;;
64966;SDS011;51710;38.732;-121.358;2022-09-27T02:26:44;4.03;;;1.20;;
64966;SDS011;51710;38.732;-121.358;2022-09-27T02:29:19;1.52;;;1.00;;
64966;SDS011;51710;38.732;-121.358;2022-09-27T02:31:52;2.53;;;1.25;;
64966;SDS011;51710;38.732;-121.358;2022-09-27T02:34:20;1.50;;;0.95;;
64966;SDS011;51710;38.732;-121.358;2022-09-27T02:36:49;2.03;;;1.10;;
64966;SDS011;51710;38.732;-121.358;2022-09-27T02:39:17;4.43;;;1.65;;
64966;SDS011;51710;38.732;-121.358;2022-09-27T02:41:44;4.07;;;1.40;;
64966;SDS011;51710;38.732;-121.358;2022-09-27T02:44:12;3.72;;;1.20;;
64966;SDS011;51710;38.732;-121.358;2022-09-27T02:46:46;2.75;;;1.17;;
64966;SDS011;51710;38.732;-121.358;2022-09-27T03:00:27;1.55;;;1.10;;
64966;SDS011;51710;38.732;-121.358;2022-09-27T03:06:17;2.13;;;1.20;;
64966;SDS011;51710;38.732;-121.358;2022-09-27T03:08:45;3.72;;;1.67;;
64966;SDS011;51710;38.732;-121.358;2022-09-27T03:11:12;3.85;;;1.25;;
64966;SDS011;51710;38.732;-121.358;2022-09-27T03:13:38;2.20;;;1.10;;
64966;SDS011;51710;38.732;-121.358;2022-09-27T03:16:05;2.92;;;1.20;;
64966;SDS011;51710;38.732;-121.358;2022-09-27T03:18:32;1.50;;;1.25;;
64966;SDS011;51710;38.732;-121.358;2022-09-27T03:20:58;2.13;;;1.10;;
64966;SDS011;51710;38.732;-121.358;2022-09-27T03:23:25;3.83;;;1.38;;
64966;SDS011;51710;38.732;-121.358;2022-09-27T03:25:52;2.22;;;1.15;;
64966;SDS011;51710;38.732;-121.358;2022-09-27T03:28:18;2.45;;;1.15;;
64966;SDS011;51710;38.732;-121.358;2022-09-27T03:30:45;2.85;;;1.10;;
64966;SDS011;51710;38.732;-121.358;2022-09-27T03:33:12;3.10;;;1.25;;
64966;SDS011;51710;38.732;-121.358;2022-09-27T03:35:38;1.65;;;1.10;;
64966;SDS011;51710;38.732;-121.358;2022-09-27T03:38:07;3.65;;;1.40;;
64966;SDS011;51710;38.732;-121.358;2022-09-27T03:40:35;2.35;;;1.40;;
64966;SDS011;51710;38.732;-121.358;2022-09-27T03:43:01;3.35;;;1.30;;
64966;SDS011;51710;38.732;-121.358;2022-09-27T03:45:27;2.20;;;1.25;;
64966;SDS011;51710;38.732;-121.358;2022-09-27T03:47:54;3.60;;;1.50;;
64966;SDS011;51710;38.732;-121.358;2022-09-27T03:50:20;2.85;;;1.35;;
64966;SDS011;51710;38.732;-121.358;2022-09-27T03:52:46;4.22;;;1.52;;
64966;SDS011;51710;38.732;-121.358;2022-09-27T03:55:13;4.72;;;1.50;;
64966;SDS011;51710;38.732;-121.358;2022-09-27T03:57:42;3.92;;;1.48;;
64966;SDS011;51710;38.732;-121.358;2022-09-27T04:00:11;2.22;;;1.17;;
64966;SDS011;51710;38.732;-121.358;2022-09-27T04:02:37;2.70;;;1.73;;
64966;SDS011;51710;38.732;-121.358;2022-09-27T04:05:04;2.70;;;1.40;;
64966;SDS011;51710;38.732;-121.358;2022-09-27T04:07:31;2.95;;;1.67;;
64966;SDS011;51710;38.732;-121.358;2022-09-27T04:09:57;2.78;;;1.60;;
64966;SDS011;51710;38.732;-121.358;2022-09-27T04:12:23;4.90;;;1.70;;
64966;SDS011;51710;38.732;-121.358;2022-09-27T04:14:49;4.80;;;1.70;;
64966;SDS011;51710;38.732;-121.358;2022-09-27T04:17:16;3.25;;;1.38;;
64966;SDS011;51710;38.732;-121.358;2022-09-27T04:19:42;2.40;;;1.20;;
64966;SDS011;51710;38.732;-121.358;2022-09-27T04:22:09;5.55;;;1.55;;
64966;SDS011;51710;38.732;-121.358;2022-09-27T04:24:35;2.40;;;1.30;;
64966;SDS011;51710;38.732;-121.358;2022-09-27T04:27:02;2.10;;;1.50;;
64966;SDS011;51710;38.732;-121.358;2022-09-27T04:29:28;4.20;;;1.52;;
64966;SDS011;51710;38.732;-121.358;2022-09-27T04:31:54;4.72;;;1.50;;
64966;SDS011;51710;38.732;-121.358;2022-09-27T04:34:20;2.60;;;1.40;;
64966;SDS011;51710;38.732;-121.358;2022-09-27T04:37:06;3.83;;;1.52;;
64966;SDS011;51710;38.732;-121.358;2022-09-27T04:39:33;2.63;;;1.70;;
64966;SDS011;51710;38.732;-121.358;2022-09-27T04:42:01;5.45;;;1.60;;
64966;SDS011;51710;38.732;-121.358;2022-09-27T04:44:27;3.80;;;1.50;;
64966;SDS011;51710;38.732;-121.358;2022-09-27T04:46:54;3.58;;;1.50;;
64966;SDS011;51710;38.732;-121.358;2022-09-27T04:49:20;4.75;;;1.35;;
64966;SDS011;51710;38.732;-121.358;2022-09-27T04:51:46;3.95;;;1.63;;
64966;SDS011;51710;38.732;-121.358;2022-09-27T04:54:13;3.50;;;1.55;;
64966;SDS011;51710;38.732;-121.358;2022-09-27T04:56:40;3.55;;;1.58;;
64966;SDS011;51710;38.732;-121.358;2022-09-27T04:59:07;3.28;;;1.50;;
64966;SDS011;51710;38.732;-121.358;2022-09-27T05:01:34;3.40;;;1.38;;
64966;SDS011;51710;38.732;-121.358;2022-09-27T05:04:00;3.53;;;1.80;;
64966;SDS011;51710;38.732;-121.358;2022-09-27T05:06:27;1.98;;;1.30;;
64966;SDS011;51710;38.732;-121.358;2022-09-27T05:08:53;3.10;;;1.42;;
64966;SDS011;51710;38.732;-121.358;2022-09-27T05:11:19;4.95;;;1.60;;
64966;SDS011;51710;38.732;-121.358;2022-09-27T05:13:46;4.00;;;1.40;;
64966;SDS011;51710;38.732;-121.358;2022-09-27T05:16:13;1.92;;;1.40;;
64966;SDS011;51710;38.732;-121.358;2022-09-27T05:18:39;2.75;;;1.50;;
64966;SDS011;51710;38.732;-121.358;2022-09-27T05:21:06;2.67;;;1.20;;
64966;SDS011;51710;38.732;-121.358;2022-09-27T05:23:32;3.95;;;1.45;;
64966;SDS011;51710;38.732;-121.358;2022-09-27T05:26:02;4.22;;;1.45;;
64966;SDS011;51710;38.732;-121.358;2022-09-27T05:28:30;1.52;;;1.30;;
64966;SDS011;51710;38.732;-121.358;2022-09-27T05:30:56;4.43;;;1.60;;
64966;SDS011;51710;38.732;-121.358;2022-09-27T05:33:23;3.70;;;1.58;;
64966;SDS011;51710;38.732;-121.358;2022-09-27T05:35:53;3.78;;;1.63;;
64966;SDS011;51710;38.732;-121.358;2022-09-27T05:38:20;5.53;;;1.80;;
64966;SDS011;51710;38.732;-121.358;2022-09-27T05:40:47;6.68;;;1.90;;
64966;SDS011;51710;38.732;-121.358;2022-09-27T05:43:15;2.83;;;1.55;;
64966;SDS011;51710;38.732;-121.358;2022-09-27T05:45:45;3.05;;;1.42;;
64966;SDS011;51710;38.732;-121.358;2022-09-27T05:48:12;4.55;;;1.70;;
64966;SDS011;51710;38.732;-121.358;2022-09-27T05:50:39;2.53;;;1.33;;
64966;SDS011;51710;38.732;-121.358;2022-09-27T05:53:05;3.78;;;1.70;;
64966;SDS011;51710;38.732;-121.358;2022-09-27T05:55:32;4.57;;;1.65;;
64966;SDS011;51710;38.732;-121.358;2022-09-27T05:57:59;7.40;;;1.88;;
64966;SDS011;51710;38.732;-121.358;2022-09-27T06:00:30;4.80;;;1.85;;
64966;SDS011;51710;38.732;-121.358;2022-09-27T06:02:58;3.78;;;1.65;;
64966;SDS011;51710;38.732;-121.358;2022-09-27T06:05:27;3.55;;;1.67;;
64966;SDS011;51710;38.732;-121.358;2022-09-27T06:07:59;3.80;;;1.65;;
64966;SDS011;51710;38.732;-121.358;2022-09-27T06:10:31;2.38;;;1.35;;
64966;SDS011;51710;38.732;-121.358;2022-09-27T06:12:58;3.58;;;2.00;;
64966;SDS011;51710;38.732;-121.358;2022-09-27T06:15:27;4.43;;;1.88;;
64966;SDS011;51710;38.732;-121.358;2022-09-27T06:17:54;4.50;;;2.28;;
64966;SDS011;51710;38.732;-121.358;2022-09-27T06:20:21;4.15;;;2.03;;
64966;SDS011;51710;38.732;-121.358;2022-09-27T06:22:47;4.60;;;1.80;;
64966;SDS011;51710;38.732;-121.358;2022-09-27T06:25:14;4.80;;;1.90;;
64966;SDS011;51710;38.732;-121.358;2022-09-27T06:27:40;3.33;;;1.75;;
64966;SDS011;51710;38.732;-121.358;2022-09-27T06:30:06;3.58;;;2.00;;
64966;SDS011;51710;38.732;-121.358;2022-09-27T06:32:33;3.05;;;1.52;;
64966;SDS011;51710;38.732;-121.358;2022-09-27T06:34:59;4.07;;;2.05;;
64966;SDS011;51710;38.732;-121.358;2022-09-27T06:37:29;3.75;;;2.10;;
64966;SDS011;51710;38.732;-121.358;2022-09-27T06:39:55;3.50;;;1.70;;
64966;SDS011;51710;38.732;-121.358;2022-09-27T06:42:21;3.33;;;1.83;;
64966;SDS011;51710;38.732;-121.358;2022-09-27T06:44:48;2.80;;;1.58;;
64966;SDS011;51710;38.732;-121.358;2022-09-27T06:47:15;3.63;;;1.80;;
64966;SDS011;51710;38.732;-121.358;2022-09-27T06:49:42;2.90;;;1.83;;
64966;SDS011;51710;38.732;-121.358;2022-09-27T06:52:08;5.57;;;2.00;;
64966;SDS011;51710;38.732;-121.358;2022-09-27T06:54:39;6.78;;;2.03;;
64966;SDS011;51710;38.732;-121.358;2022-09-27T06:57:06;3.03;;;1.70;;
64966;SDS011;51710;38.732;-121.358;2022-09-27T06:59:32;6.30;;;1.80;;
64966;SDS011;51710;38.732;-121.358;2022-09-27T07:02:17;4.70;;;1.90;;
64966;SDS011;51710;38.732;-121.358;2022-09-27T07:04:43;3.38;;;1.60;;
64966;SDS011;51710;38.732;-121.358;2022-09-27T07:07:09;3.80;;;1.83;;
64966;SDS011;51710;38.732;-121.358;2022-09-27T07:09:36;3.85;;;1.88;;
64966;SDS011;51710;38.732;-121.358;2022-09-27T07:12:04;3.65;;;1.83;;
64966;SDS011;51710;38.732;-121.358;2022-09-27T07:14:31;3.83;;;1.73;;
64966;SDS011;51710;38.732;-121.358;2022-09-27T07:16:58;5.97;;;2.58;;
64966;SDS011;51710;38.732;-121.358;2022-09-27T07:19:25;3.55;;;1.80;;
64966;SDS011;51710;38.732;-121.358;2022-09-27T07:21:52;3.95;;;1.98;;
64966;SDS011;51710;38.732;-121.358;2022-09-27T07:24:18;3.85;;;2.15;;
64966;SDS011;51710;38.732;-121.358;2022-09-27T07:26:46;5.38;;;2.00;;
64966;SDS011;51710;38.732;-121.358;2022-09-27T07:29:12;3.95;;;2.15;;
64966;SDS011;51710;38.732;-121.358;2022-09-27T07:31:39;3.38;;;2.17;;
64966;SDS011;51710;38.732;-121.358;2022-09-27T07:34:06;7.05;;;2.17;;
64966;SDS011;51710;38.732;-121.358;2022-09-27T07:36:33;3.42;;;1.92;;
64966;SDS011;51710;38.732;-121.358;2022-09-27T07:38:59;4.35;;;1.75;;
64966;SDS011;51710;38.732;-121.358;2022-09-27T07:41:26;3.50;;;1.80;;
64966;SDS011;51710;38.732;-121.358;2022-09-27T07:43:52;4.70;;;1.98;;
64966;SDS011;51710;38.732;-121.358;2022-09-27T07:46:19;5.00;;;2.10;;
64966;SDS011;51710;38.732;-121.358;2022-09-27T07:48:45;5.07;;;1.70;;
64966;SDS011;51710;38.732;-121.358;2022-09-27T07:51:13;5.15;;;2.05;;
64966;SDS011;51710;38.732;-121.358;2022-09-27T07:53:40;2.92;;;1.77;;
64966;SDS011;51710;38.732;-121.358;2022-09-27T07:56:06;3.35;;;1.80;;
64966;SDS011;51710;38.732;-121.358;2022-09-27T07:58:34;4.45;;;2.00;;
64966;SDS011;51710;38.732;-121.358;2022-09-27T08:01:01;5.55;;;1.80;;
64966;SDS011;51710;38.732;-121.358;2022-09-27T08:03:27;2.95;;;1.63;;
64966;SDS011;51710;38.732;-121.358;2022-09-27T08:05:53;3.45;;;1.83;;
64966;SDS011;51710;38.732;-121.358;2022-09-27T08:08:20;4.97;;;2.30;;
64966;SDS011;51710;38.732;-121.358;2022-09-27T08:10:46;6.03;;;1.80;;
64966;SDS011;51710;38.732;-121.358;2022-09-27T08:13:13;5.38;;;2.03;;
64966;SDS011;51710;38.732;-121.358;2022-09-27T08:15:44;4.35;;;2.00;;
64966;SDS011;51710;38.732;-121.358;2022-09-27T08:18:10;4.03;;;1.65;;
64966;SDS011;51710;38.732;-121.358;2022-09-27T08:20:37;4.88;;;2.00;;
64966;SDS011;51710;38.732;-121.358;2022-09-27T08:23:04;2.63;;;1.63;;
64966;SDS011;51710;38.732;-121.358;2022-09-27T08:25:31;3.05;;;1.77;;
64966;SDS011;51710;38.732;-121.358;2022-09-27T08:27:59;4.03;;;2.15;;
64966;SDS011;51710;38.732;-121.358;2022-09-27T08:30:29;4.15;;;1.60;;
64966;SDS011;51710;38.732;-121.358;2022-09-27T08:32:57;5.65;;;1.95;;
64966;SDS011;51710;38.732;-121.358;2022-09-27T08:35:27;4.93;;;2.05;;
64966;SDS011;51710;38.732;-121.358;2022-09-27T08:37:58;4.32;;;1.70;;
64966;SDS011;51710;38.732;-121.358;2022-09-27T08:41:09;3.88;;;1.65;;
64966;SDS011;51710;38.732;-121.358;2022-09-27T08:48:27;3.92;;;1.50;;
64966;SDS011;51710;38.732;-121.358;2022-09-27T08:50:55;5.28;;;1.58;;
64966;SDS011;51710;38.732;-121.358;2022-09-27T08:53:27;3.40;;;1.67;;
64966;SDS011;51710;38.732;-121.358;2022-09-27T08:56:01;3.20;;;1.48;;
64966;SDS011;51710;38.732;-121.358;2022-09-27T08:58:32;6.05;;;1.88;;
64966;SDS011;51710;38.732;-121.358;2022-09-27T09:01:03;3.53;;;1.70;;
64966;SDS011;51710;38.732;-121.358;2022-09-27T09:03:32;4.35;;;1.55;;
64966;SDS011;51710;38.732;-121.358;2022-09-27T09:06:10;2.50;;;1.33;;
64966;SDS011;51710;38.732;-121.358;2022-09-27T09:08:50;3.33;;;1.50;;
64966;SDS011;51710;38.732;-121.358;2022-09-27T09:11:26;2.75;;;1.48;;
64966;SDS011;51710;38.732;-121.358;2022-09-27T09:17:05;4.68;;;1.50;;
64966;SDS011;51710;38.732;-121.358;2022-09-27T09:20:00;3.80;;;1.80;;
64966;SDS011;51710;38.732;-121.358;2022-09-27T09:23:12;2.87;;;1.47;;
64966;SDS011;51710;38.732;-121.358;2022-09-27T09:34:14;5.70;;;1.83;;
64966;SDS011;51710;38.732;-121.358;2022-09-27T09:39:42;2.80;;;1.63;;
64966;SDS011;51710;38.732;-121.358;2022-09-27T09:45:40;3.45;;;1.60;;
64966;SDS011;51710;38.732;-121.358;2022-09-27T09:48:16;4.30;;;1.65;;
64966;SDS011;51710;38.732;-121.358;2022-09-27T09:50:51;2.42;;;1.70;;
64966;SDS011;51710;38.732;-121.358;2022-09-27T09:58:59;2.97;;;1.60;;
64966;SDS011;51710;38.732;-121.358;2022-09-27T10:04:03;4.10;;;1.60;;
64966;SDS011;51710;38.732;-121.358;2022-09-27T10:06:29;3.20;;;1.77;;
64966;SDS011;51710;38.732;-121.358;2022-09-27T10:08:56;5.68;;;2.33;;
64966;SDS011;51710;38.732;-121.358;2022-09-27T10:11:25;2.65;;;1.70;;
64966;SDS011;51710;38.732;-121.358;2022-09-27T10:13:56;3.15;;;1.52;;
64966;SDS011;51710;38.732;-121.358;2022-09-27T10:16:24;6.75;;;2.10;;
64966;SDS011;51710;38.732;-121.358;2022-09-27T10:18:56;3.08;;;1.60;;
64966;SDS011;51710;38.732;-121.358;2022-09-27T10:21:27;2.95;;;1.60;;
64966;SDS011;51710;38.732;-121.358;2022-09-27T10:24:05;3.63;;;1.90;;
64966;SDS011;51710;38.732;-121.358;2022-09-27T10:26:40;6.13;;;1.90;;
64966;SDS011;51710;38.732;-121.358;2022-09-27T10:29:22;3.60;;;1.80;;
64966;SDS011;51710;38.732;-121.358;2022-09-27T10:31:53;2.58;;;1.60;;
64966;SDS011;51710;38.732;-121.358;2022-09-27T10:37:01;3.45;;;1.48;;
64966;SDS011;51710;38.732;-121.358;2022-09-27T10:39:29;4.63;;;1.88;;
64966;SDS011;51710;38.732;-121.358;2022-09-27T10:41:55;4.35;;;1.85;;
64966;SDS011;51710;38.732;-121.358;2022-09-27T10:44:26;2.35;;;1.40;;
64966;SDS011;51710;38.732;-121.358;2022-09-27T10:46:55;2.70;;;1.70;;
64966;SDS011;51710;38.732;-121.358;2022-09-27T10:49:26;4.38;;;1.70;;
64966;SDS011;51710;38.732;-121.358;2022-09-27T10:51:58;2.50;;;1.52;;
64966;SDS011;51710;38.732;-121.358;2022-09-27T10:54:29;3.45;;;1.73;;
64966;SDS011;51710;38.732;-121.358;2022-09-27T10:59:40;3.22;;;1.58;;
64966;SDS011;51710;38.732;-121.358;2022-09-27T11:07:54;4.82;;;2.00;;
64966;SDS011;51710;38.732;-121.358;2022-09-27T11:10:23;3.10;;;1.83;;
64966;SDS011;51710;38.732;-121.358;2022-09-27T11:13:35;3.55;;;1.52;;
64966;SDS011;51710;38.732;-121.358;2022-09-27T11:15:49;4.13;;;1.90;;
64966;SDS011;51710;38.732;-121.358;2022-09-27T11:29:09;4.03;;;1.85;;
64966;SDS011;51710;38.732;-121.358;2022-09-27T11:32:03;2.55;;;1.67;;
64966;SDS011;51710;38.732;-121.358;2022-09-27T11:34:40;4.57;;;2.03;;
64966;SDS011;51710;38.732;-121.358;2022-09-27T11:45:41;3.47;;;2.00;;
64966;SDS011;51710;38.732;-121.358;2022-09-27T11:53:50;4.30;;;2.05;;
64966;SDS011;51710;38.732;-121.358;2022-09-27T11:56:39;5.03;;;1.88;;
64966;SDS011;51710;38.732;-121.358;2022-09-27T11:59:32;4.07;;;2.00;;
64966;SDS011;51710;38.732;-121.358;2022-09-27T12:05:28;4.57;;;1.80;;
64966;SDS011;51710;38.732;-121.358;2022-09-27T12:13:18;6.13;;;2.00;;
64966;SDS011;51710;38.732;-121.358;2022-09-27T12:15:56;4.88;;;2.22;;
64966;SDS011;51710;38.732;-121.358;2022-09-27T12:18:41;3.80;;;2.20;;
64966;SDS011;51710;38.732;-121.358;2022-09-27T12:21:09;4.65;;;2.05;;
64966;SDS011;51710;38.732;-121.358;2022-09-27T12:23:39;4.32;;;2.10;;
64966;SDS011;51710;38.732;-121.358;2022-09-27T12:26:12;5.65;;;2.40;;
64966;SDS011;51710;38.732;-121.358;2022-09-27T12:31:53;3.45;;;2.10;;
64966;SDS011;51710;38.732;-121.358;2022-09-27T12:37:04;3.92;;;2.13;;
64966;SDS011;51710;38.732;-121.358;2022-09-27T12:39:47;4.22;;;2.03;;
64966;SDS011;51710;38.732;-121.358;2022-09-27T12:51:13;5.20;;;2.60;;
64966;SDS011;51710;38.732;-121.358;2022-09-27T12:56:39;4.45;;;2.55;;
64966;SDS011;51710;38.732;-121.358;2022-09-27T13:07:34;5.50;;;2.22;;
64966;SDS011;51710;38.732;-121.358;2022-09-27T13:12:55;6.45;;;3.00;;
64966;SDS011;51710;38.732;-121.358;2022-09-27T13:15:31;5.68;;;2.53;;
64966;SDS011;51710;38.732;-121.358;2022-09-27T13:18:00;5.85;;;2.53;;
64966;SDS011;51710;38.732;-121.358;2022-09-27T13:20:36;4.93;;;2.97;;
64966;SDS011;51710;38.732;-121.358;2022-09-27T13:31:06;5.82;;;3.03;;
64966;SDS011;51710;38.732;-121.358;2022-09-27T13:46:57;4.93;;;2.95;;
64966;SDS011;51710;38.732;-121.358;2022-09-27T13:49:35;6.05;;;3.80;;
64966;SDS011;51710;38.732;-121.358;2022-09-27T13:58:26;4.70;;;2.70;;
64966;SDS011;51710;38.732;-121.358;2022-09-27T14:00:59;5.38;;;3.28;;
64966;SDS011;51710;38.732;-121.358;2022-09-27T14:03:34;7.28;;;3.20;;
64966;SDS011;51710;38.732;-121.358;2022-09-27T14:06:04;9.30;;;3.50;;
64966;SDS011;51710;38.732;-121.358;2022-09-27T14:08:49;4.53;;;2.80;;
64966;SDS011;51710;38.732;-121.358;2022-09-27T14:11:29;6.53;;;3.72;;
64966;SDS011;51710;38.732;-121.358;2022-09-27T14:14:06;5.07;;;3.08;;
64966;SDS011;51710;38.732;-121.358;2022-09-27T14:16:51;4.85;;;3.20;;
64966;SDS011;51710;38.732;-121.358;2022-09-27T14:19:21;5.93;;;3.58;;
64966;SDS011;51710;38.732;-121.358;2022-09-27T14:21:50;5.60;;;3.13;;
64966;SDS011;51710;38.732;-121.358;2022-09-27T14:26:50;5.78;;;3.40;;
64966;SDS011;51710;38.732;-121.358;2022-09-27T14:29:44;5.15;;;3.20;;
64966;SDS011;51710;38.732;-121.358;2022-09-27T14:32:17;6.03;;;3.25;;
64966;SDS011;51710;38.732;-121.358;2022-09-27T14:35:06;6.40;;;3.33;;
64966;SDS011;51710;38.732;-121.358;2022-09-27T14:37:58;6.18;;;3.10;;
64966;SDS011;51710;38.732;-121.358;2022-09-27T14:40:27;5.22;;;2.60;;
64966;SDS011;51710;38.732;-121.358;2022-09-27T14:42:57;5.20;;;2.97;;
64966;SDS011;51710;38.732;-121.358;2022-09-27T14:45:34;6.88;;;3.45;;
64966;SDS011;51710;38.732;-121.358;2022-09-27T14:48:21;5.32;;;3.08;;
64966;SDS011;51710;38.732;-121.358;2022-09-27T14:53:44;5.75;;;3.25;;
64966;SDS011;51710;38.732;-121.358;2022-09-27T14:56:25;8.80;;;3.47;;
64966;SDS011;51710;38.732;-121.358;2022-09-27T14:59:08;6.28;;;3.22;;
64966;SDS011;51710;38.732;-121.358;2022-09-27T15:02:03;5.35;;;3.28;;
64966;SDS011;51710;38.732;-121.358;2022-09-27T15:04:43;4.70;;;2.97;;
64966;SDS011;51710;38.732;-121.358;2022-09-27T15:07:12;7.65;;;3.15;;
64966;SDS011;51710;38.732;-121.358;2022-09-27T15:09:43;5.20;;;3.03;;
64966;SDS011;51710;38.732;-121.358;2022-09-27T15:12:15;5.72;;;3.47;;
64966;SDS011;51710;38.732;-121.358;2022-09-27T15:14:50;8.15;;;3.28;;
64966;SDS011;51710;38.732;-121.358;2022-09-27T15:17:18;4.25;;;2.65;;
64966;SDS011;51710;38.732;-121.358;2022-09-27T15:20:00;6.45;;;3.17;;
64966;SDS011;51710;38.732;-121.358;2022-09-27T15:22:43;6.20;;;2.90;;
64966;SDS011;51710;38.732;-121.358;2022-09-27T15:25:20;5.88;;;2.83;;
64966;SDS011;51710;38.732;-121.358;2022-09-27T15:27:56;7.63;;;2.97;;
64966;SDS011;51710;38.732;-121.358;2022-09-27T15:30:26;8.35;;;3.50;;
64966;SDS011;51710;38.732;-121.358;2022-09-27T15:33:20;4.82;;;2.83;;
64966;SDS011;51710;38.732;-121.358;2022-09-27T15:35:51;5.30;;;3.08;;
64966;SDS011;51710;38.732;-121.358;2022-09-27T15:38:29;5.32;;;2.90;;
64966;SDS011;51710;38.732;-121.358;2022-09-27T15:41:02;4.18;;;2.70;;
64966;SDS011;51710;38.732;-121.358;2022-09-27T15:49:19;5.72;;;3.58;;
64966;SDS011;51710;38.732;-121.358;2022-09-27T15:51:51;5.25;;;3.10;;
64966;SDS011;51710;38.732;-121.358;2022-09-27T15:54:19;10.57;;;3.00;;
64966;SDS011;51710;38.732;-121.358;2022-09-27T15:56:47;8.68;;;2.85;;
64966;SDS011;51710;38.732;-121.358;2022-09-27T15:59:17;5.45;;;2.38;;
64966;SDS011;51710;38.732;-121.358;2022-09-27T16:01:46;9.30;;;3.20;;
64966;SDS011;51710;38.732;-121.358;2022-09-27T16:04:12;5.95;;;2.70;;
64966;SDS011;51710;38.732;-121.358;2022-09-27T16:06:39;5.07;;;2.80;;
64966;SDS011;51710;38.732;-121.358;2022-09-27T16:09:17;5.72;;;2.92;;
64966;SDS011;51710;38.732;-121.358;2022-09-27T16:11:48;3.80;;;2.60;;
64966;SDS011;51710;38.732;-121.358;2022-09-27T16:14:15;6.32;;;3.00;;
64966;SDS011;51710;38.732;-121.358;2022-09-27T16:16:44;7.20;;;2.83;;
64966;SDS011;51710;38.732;-121.358;2022-09-27T16:19:16;7.00;;;2.47;;
64966;SDS011;51710;38.732;-121.358;2022-09-27T16:21:42;4.50;;;2.78;;
64966;SDS011;51710;38.732;-121.358;2022-09-27T16:24:10;5.45;;;2.72;;
64966;SDS011;51710;38.732;-121.358;2022-09-27T16:26:37;5.82;;;2.50;;
64966;SDS011;51710;38.732;-121.358;2022-09-27T16:29:04;4.38;;;2.67;;
64966;SDS011;51710;38.732;-121.358;2022-09-27T16:31:38;4.47;;;2.45;;
64966;SDS011;51710;38.732;-121.358;2022-09-27T16:34:06;3.42;;;2.45;;
64966;SDS011;51710;38.732;-121.358;2022-09-27T16:36:33;5.47;;;2.92;;
64966;SDS011;51710;38.732;-121.358;2022-09-27T16:39:00;4.80;;;2.42;;
64966;SDS011;51710;38.732;-121.358;2022-09-27T16:41:29;4.70;;;2.30;;
64966;SDS011;51710;38.732;-121.358;2022-09-27T16:43:57;7.25;;;2.42;;
64966;SDS011;51710;38.732;-121.358;2022-09-27T16:46:24;3.47;;;2.40;;
64966;SDS011;51710;38.732;-121.358;2022-09-27T16:48:51;3.80;;;2.13;;
64966;SDS011;51710;38.732;-121.358;2022-09-27T16:51:20;3.65;;;2.22;;
64966;SDS011;51710;38.732;-121.358;2022-09-27T16:54:04;4.43;;;2.17;;
64966;SDS011;51710;38.732;-121.358;2022-09-27T16:56:34;4.25;;;1.88;;
64966;SDS011;51710;38.732;-121.358;2022-09-27T16:59:02;4.03;;;2.40;;
64966;SDS011;51710;38.732;-121.358;2022-09-27T17:01:29;4.10;;;2.08;;
64966;SDS011;51710;38.732;-121.358;2022-09-27T17:03:56;4.60;;;2.42;;
64966;SDS011;51710;38.732;-121.358;2022-09-27T17:06:24;5.70;;;2.50;;
64966;SDS011;51710;38.732;-121.358;2022-09-27T17:08:52;6.25;;;2.00;;
64966;SDS011;51710;38.732;-121.358;2022-09-27T17:11:20;3.67;;;1.70;;
64966;SDS011;51710;38.732;-121.358;2022-09-27T17:13:47;5.00;;;1.70;;
64966;SDS011;51710;38.732;-121.358;2022-09-27T17:16:13;5.07;;;2.03;;
64966;SDS011;51710;38.732;-121.358;2022-09-27T17:18:41;3.60;;;1.77;;
64966;SDS011;51710;38.732;-121.358;2022-09-27T17:21:07;3.97;;;1.85;;
64966;SDS011;51710;38.732;-121.358;2022-09-27T17:23:34;3.33;;;1.83;;
64966;SDS011;51710;38.732;-121.358;2022-09-27T17:26:05;4.05;;;1.70;;
64966;SDS011;51710;38.732;-121.358;2022-09-27T17:28:33;4.95;;;1.98;;
64966;SDS011;51710;38.732;-121.358;2022-09-27T17:31:01;4.13;;;2.13;;
64966;SDS011;51710;38.732;-121.358;2022-09-27T17:33:29;3.92;;;2.00;;
64966;SDS011;51710;38.732;-121.358;2022-09-27T17:36:01;3.70;;;1.83;;
64966;SDS011;51710;38.732;-121.358;2022-09-27T17:38:30;4.47;;;2.00;;
64966;SDS011;51710;38.732;-121.358;2022-09-27T17:41:03;6.78;;;1.77;;
64966;SDS011;51710;38.732;-121.358;2022-09-27T17:43:31;5.30;;;2.00;;
64966;SDS011;51710;38.732;-121.358;2022-09-27T17:46:06;5.30;;;2.10;;